This demonstration page uses our WeatherBlox Daily Observations layout. Learn more.

38.89511, -77.03637

Hourly Observations for July 19, 2017

Temp ( °F °C ) Dew Point ( °F °C ) Humidity (%) Winds ( mph kmh ) Pressure ( in mb ) Visibility ( mi km ) Precip ( " mm )
12:52 am 00:52 Partly Cloudy 81 27.2 76 24.4 85 85 S 6 9 30.06 1018 10 16.09344 0 0
1:52 am 01:52 Partly Cloudy 80 26.7 76 24.4 87 87 S 7 11 30.06 1018 10 16.09344 0 0
2:52 am 02:52 Partly Cloudy 79 26.1 75 23.9 88 88 S 6 9 30.06 1018 10 16.09344 0 0
3:52 am 03:52 Partly Cloudy 79 26.1 74 23.3 85 85 SW 5 7 30.03 1017 10 16.09344 0 0
4:52 am 04:52 Mostly Clear 78 25.6 75 23.9 90 90 SW 3 6 30.03 1017 10 16.09344 0 0
5:52 am 05:52 Partly Cloudy 77 25 74 23.3 90 90 SSW 5 7 30.06 1018 10 16.09344 0 0
6:52 am 06:52 Mostly Sunny 78 25.6 74 23.3 87 87 SSW 5 7 30.06 1018 10 16.09344 0 0
7:52 am 07:52 Mostly Sunny 81 27.2 75 23.9 82 82 Calm 30.06 1018 10 16.09344 0 0
8:52 am 08:52 Mostly Sunny 82 27.8 75 23.9 79 79 E 3 6 30.06 1018 10 16.09344 0 0
9:52 am 09:52 Partly Cloudy 85 29.4 76 24.4 75 75 NNE 6 9 30.06 1018 10 16.09344 0 0
10:52 am 10:52 Partly Cloudy 88 31.1 75 23.9 66 66 NNE 6 9 30.06 1018 10 16.09344 0 0
11:52 am 11:52 Mostly Sunny 91 32.8 71 21.7 52 52 N 6 9 30.06 1018 10 16.09344 0 0
12:52 pm 12:52 Mostly Sunny 92 33.3 69 20.6 47 47 E 6 9 30.03 1017 10 16.09344 0 0
1:52 pm 13:52 Mostly Sunny 93 33.9 73 22.8 52 52 S 10 17 30.03 1017 10 16.09344 0 0
2:52 pm 14:52 Partly Cloudy 91 32.8 73 22.8 56 56 S 10 17 30 1016 10 16.09344 0 0
3:52 pm 15:52 Mostly Cloudy 94 34.4 73 22.8 51 51 S 10 17 30 1016 10 16.09344 0 0
4:52 pm 16:52 Mostly Cloudy 96 35.6 65 18.3 36 36 N 5 7 29.97 1015 10 16.09344 0 0
5:52 pm 17:52 Mostly Cloudy 95 35 70 21.1 44 44 N 5 7 29.97 1015 10 16.09344 0 0
6:52 pm 18:52 Partly Cloudy 93 33.9 69 20.6 46 46 SSW 10 17 29.97 1015 10 16.09344 0 0
7:52 pm 19:52 Partly Cloudy 91 32.8 70 21.1 50 50 SSW 12 19 29.97 1015 10 16.09344 0 0
8:52 pm 20:52 Partly Cloudy 89 31.7 70 21.1 53 53 SW 8 13 30 1016 10 16.09344 0 0
9:52 pm 21:52 Partly Cloudy 86 30 75 23.9 70 70 S 10 17 30 1016 10 16.09344 0 0
10:52 pm 22:52 Mostly Clear 85 29.4 75 23.9 72 72 S 7 11 30 1016 10 16.09344 0 0
11:52 pm 23:52 Mostly Clear 84 28.9 76 24.4 77 77 S 7 11 30 1016 10 16.09344 0 0

Powered by AerisWeather